createdAt,value
2019-06-27T00:00:17.576Z,24.66
2019-06-27T00:01:17.526Z,24.58
2019-06-27T00:02:17.522Z,24.63
2019-06-27T00:03:17.500Z,24.48
2019-06-27T00:04:17.494Z,24.40
2019-06-27T00:05:17.477Z,24.40
2019-06-27T00:06:17.483Z,24.51
2019-06-27T00:07:17.454Z,24.45
2019-06-27T00:08:17.457Z,24.33
2019-06-27T00:09:17.436Z,24.32
2019-06-27T00:10:17.434Z,24.38
2019-06-27T00:11:17.440Z,24.35
2019-06-27T00:12:17.405Z,24.36
2019-06-27T00:13:17.406Z,24.38
2019-06-27T00:14:17.441Z,24.38
2019-06-27T00:15:17.383Z,24.43
2019-06-27T00:16:17.421Z,24.53
2019-06-27T00:17:17.350Z,24.47
2019-06-27T00:18:17.335Z,24.50
2019-06-27T00:19:17.342Z,24.51
2019-06-27T00:20:17.314Z,24.48
2019-06-27T00:21:17.322Z,24.54
2019-06-27T00:22:17.327Z,24.43
2019-06-27T00:23:17.285Z,24.40
2019-06-27T00:24:17.275Z,24.30
2019-06-27T00:25:17.285Z,24.20
2019-06-27T00:26:17.254Z,24.10
2019-06-27T00:27:17.263Z,24.06
2019-06-27T00:28:17.229Z,23.88
2019-06-27T00:29:17.228Z,23.83
2019-06-27T00:30:17.244Z,23.86
2019-06-27T00:31:17.221Z,23.77
2019-06-27T00:32:17.231Z,23.71
2019-06-27T00:33:17.204Z,23.80
2019-06-27T00:34:17.168Z,23.77
2019-06-27T00:35:17.156Z,23.77
2019-06-27T00:36:17.153Z,23.68
2019-06-27T00:37:17.484Z,23.58
2019-06-27T00:38:17.143Z,23.59
2019-06-27T00:39:17.112Z,23.55
2019-06-27T00:40:17.107Z,23.50
2019-06-27T00:41:17.096Z,23.46
2019-06-27T00:42:17.092Z,23.47
2019-06-27T00:43:17.102Z,23.46
2019-06-27T00:44:17.069Z,23.43
2019-06-27T00:45:17.047Z,23.48
2019-06-27T00:46:17.060Z,23.50
2019-06-27T00:47:17.028Z,23.51
2019-06-27T00:48:17.035Z,23.41
2019-06-27T00:49:17.005Z,23.54
2019-06-27T00:50:17.001Z,23.47
2019-06-27T00:51:16.983Z,23.46
2019-06-27T00:52:16.976Z,23.40
2019-06-27T00:53:17.020Z,23.36
2019-06-27T00:54:16.965Z,23.34
2019-06-27T00:55:16.951Z,23.27
2019-06-27T00:56:16.947Z,23.25
2019-06-27T00:57:16.919Z,23.37
2019-06-27T00:58:16.906Z,23.31
2019-06-27T00:59:16.927Z,23.31
2019-06-27T01:00:16.885Z,23.21
2019-06-27T01:01:16.883Z,23.13
2019-06-27T01:02:16.876Z,22.93
2019-06-27T01:03:16.853Z,22.96
2019-06-27T01:04:16.865Z,22.90
2019-06-27T01:05:16.842Z,22.70
2019-06-27T01:06:16.824Z,22.68
2019-06-27T01:07:16.823Z,22.66
2019-06-27T01:08:16.819Z,22.54
2019-06-27T01:09:16.806Z,22.55
2019-06-27T01:10:16.780Z,22.69
2019-06-27T01:11:16.782Z,22.68
2019-06-27T01:12:16.756Z,22.69
2019-06-27T01:13:16.764Z,22.72
2019-06-27T01:14:16.797Z,22.70
2019-06-27T01:15:16.724Z,22.72
2019-06-27T01:16:16.718Z,22.69
2019-06-27T01:17:16.723Z,22.55
2019-06-27T01:18:16.694Z,22.66
2019-06-27T01:19:16.689Z,22.55
2019-06-27T01:20:16.708Z,22.59
2019-06-27T01:21:16.658Z,22.50
2019-06-27T01:22:16.654Z,22.62
2019-06-27T01:23:16.645Z,22.48
2019-06-27T01:24:16.636Z,22.30
2019-06-27T01:25:16.643Z,22.32
2019-06-27T01:26:16.607Z,22.26
2019-06-27T01:27:29.570Z,22.17
2019-06-27T01:28:16.599Z,22.26
2019-06-27T01:29:16.579Z,22.17
2019-06-27T01:30:16.613Z,22.13
2019-06-27T01:31:16.550Z,22.13
2019-06-27T01:32:16.551Z,22.10
2019-06-27T01:33:16.528Z,22.06
2019-06-27T01:34:16.532Z,22.11
2019-06-27T01:35:16.541Z,22.02
2019-06-27T01:36:16.516Z,21.95
2019-06-27T01:37:16.487Z,21.85
2019-06-27T01:38:16.474Z,21.82
2019-06-27T01:39:16.466Z,21.92
2019-06-27T01:40:16.474Z,21.85
2019-06-27T01:41:16.481Z,21.77
2019-06-27T01:42:16.444Z,21.72
2019-06-27T01:43:16.424Z,21.73
2019-06-27T01:44:16.409Z,21.82
2019-06-27T01:45:16.407Z,21.75
2019-06-27T01:46:16.432Z,21.76
2019-06-27T01:47:16.386Z,21.79
2019-06-27T01:48:16.424Z,21.73
2019-06-27T01:49:16.367Z,21.64
2019-06-27T01:50:16.348Z,21.61
2019-06-27T01:51:16.349Z,21.64
2019-06-27T01:52:16.355Z,21.67
2019-06-27T01:53:16.326Z,21.64
2019-06-27T01:54:16.300Z,21.55
2019-06-27T01:55:16.298Z,21.50
2019-06-27T01:56:16.279Z,21.54
2019-06-27T01:57:16.291Z,21.46
2019-06-27T01:58:16.266Z,21.25
2019-06-27T01:59:16.254Z,21.15
2019-06-27T02:00:16.241Z,21.11
2019-06-27T02:01:16.225Z,21.06
2019-06-27T02:02:16.282Z,21.00
2019-06-27T02:03:16.222Z,20.99
2019-06-27T02:04:16.195Z,20.93
2019-06-27T02:05:16.194Z,20.92
2019-06-27T02:06:16.264Z,20.97
2019-06-27T02:07:16.164Z,20.87
2019-06-27T02:08:16.182Z,20.80
2019-06-27T02:09:16.164Z,20.78
2019-06-27T02:10:16.140Z,20.65
2019-06-27T02:11:16.130Z,20.63
2019-06-27T02:12:16.108Z,20.69
2019-06-27T02:13:16.115Z,20.67
2019-06-27T02:14:16.094Z,20.69
2019-06-27T02:15:16.073Z,20.63
2019-06-27T02:16:16.076Z,20.50
2019-06-27T02:17:16.051Z,20.62
2019-06-27T02:18:16.090Z,20.52
2019-06-27T02:19:16.030Z,20.43
2019-06-27T02:20:16.033Z,20.26
2019-06-27T02:21:16.009Z,20.19
2019-06-27T02:22:16.005Z,20.26
2019-06-27T02:23:16.209Z,20.19
2019-06-27T02:24:15.996Z,20.10
2019-06-27T02:25:15.967Z,20.07
2019-06-27T02:26:15.968Z,20.07
2019-06-27T02:27:15.949Z,20.07
2019-06-27T02:28:15.942Z,19.99
2019-06-27T02:29:15.962Z,19.85
2019-06-27T02:30:15.910Z,19.81
2019-06-27T02:31:15.906Z,19.91
2019-06-27T02:32:15.903Z,19.79
2019-06-27T02:33:15.891Z,19.88
2019-06-27T02:34:15.903Z,19.84
2019-06-27T02:35:15.860Z,19.92
2019-06-27T02:36:15.853Z,19.95
2019-06-27T02:37:15.846Z,20.04
2019-06-27T02:38:15.828Z,20.02
2019-06-27T02:39:15.872Z,20.04
2019-06-27T02:40:15.804Z,20.00
2019-06-27T02:41:15.801Z,19.85
2019-06-27T02:42:15.781Z,19.76
2019-06-27T02:43:15.791Z,19.73
2019-06-27T02:44:15.766Z,19.84
2019-06-27T02:45:15.774Z,19.82
2019-06-27T02:46:15.740Z,19.81
2019-06-27T02:47:15.729Z,19.82
2019-06-27T02:48:15.717Z,19.84
2019-06-27T02:49:15.714Z,19.66
2019-06-27T02:50:15.717Z,19.59
2019-06-27T02:51:15.705Z,19.56
2019-06-27T02:52:15.675Z,19.51
2019-06-27T02:53:15.664Z,19.52
2019-06-27T02:54:15.659Z,19.39
2019-06-27T02:55:15.678Z,19.49
2019-06-27T02:56:15.647Z,19.41
2019-06-27T02:57:15.640Z,19.54
2019-06-27T02:58:29.965Z,19.41
2019-06-27T02:59:15.601Z,19.47
2019-06-27T03:00:15.633Z,19.49
2019-06-27T03:01:15.590Z,19.41
2019-06-27T03:02:15.585Z,19.39
2019-06-27T03:03:15.560Z,19.36
2019-06-27T03:04:15.553Z,19.39
2019-06-27T03:05:15.574Z,19.29
2019-06-27T03:06:15.539Z,19.15
2019-06-27T03:07:15.524Z,19.15
2019-06-27T03:08:15.517Z,19.19
2019-06-27T03:09:15.520Z,19.19
2019-06-27T03:10:15.730Z,19.15
2019-06-27T03:11:15.477Z,19.12
2019-06-27T03:12:15.474Z,19.08
2019-06-27T03:13:15.457Z,19.11
2019-06-27T03:14:15.462Z,19.07
2019-06-27T03:15:15.523Z,19.14
2019-06-27T03:16:15.420Z,19.16
2019-06-27T03:17:15.409Z,19.21
2019-06-27T03:18:15.406Z,19.30
2019-06-27T03:19:15.411Z,19.34
2019-06-27T03:20:15.393Z,19.26
2019-06-27T03:21:15.365Z,19.21
2019-06-27T03:22:15.350Z,19.34
2019-06-27T03:23:15.363Z,19.18
2019-06-27T03:24:15.381Z,19.09
2019-06-27T03:25:15.327Z,19.11
2019-06-27T03:26:15.311Z,19.12
2019-06-27T03:27:15.297Z,19.11
2019-06-27T03:28:15.286Z,19.18
2019-06-27T03:29:20.042Z,19.18
2019-06-27T03:30:16.306Z,19.26
2019-06-27T03:31:15.265Z,19.08
2019-06-27T03:32:15.279Z,19.16
2019-06-27T03:33:15.240Z,19.19
2019-06-27T03:34:15.224Z,19.22
2019-06-27T03:35:15.241Z,19.21
2019-06-27T03:36:15.233Z,19.16
2019-06-27T03:37:15.205Z,19.15
2019-06-27T03:38:15.211Z,19.18
2019-06-27T03:39:15.198Z,19.24
2019-06-27T03:40:15.176Z,19.12
2019-06-27T03:41:15.170Z,18.89
2019-06-27T03:42:15.140Z,18.75
2019-06-27T03:43:15.131Z,18.73
2019-06-27T03:44:15.156Z,18.50
2019-06-27T03:45:16.251Z,18.58
2019-06-27T03:46:15.102Z,18.49
2019-06-27T03:47:15.096Z,18.49
2019-06-27T03:48:15.075Z,18.43
2019-06-27T03:49:15.093Z,18.49
2019-06-27T03:50:15.049Z,18.40
2019-06-27T03:51:15.038Z,18.18
2019-06-27T03:52:15.047Z,18.23
2019-06-27T03:53:15.029Z,18.31
2019-06-27T03:54:15.054Z,18.35
2019-06-27T03:55:14.993Z,18.25
2019-06-27T03:56:14.994Z,18.26
2019-06-27T03:57:14.976Z,18.35
2019-06-27T03:58:14.977Z,18.25
2019-06-27T03:59:14.973Z,18.35
2019-06-27T04:00:14.970Z,18.28
2019-06-27T04:01:14.929Z,18.28
2019-06-27T04:02:14.934Z,18.31
2019-06-27T04:03:14.917Z,18.40
2019-06-27T04:04:14.905Z,18.31
2019-06-27T04:05:14.948Z,18.20
2019-06-27T04:06:14.899Z,18.07
2019-06-27T04:07:14.863Z,18.29
2019-06-27T04:08:14.851Z,18.34
2019-06-27T04:09:14.854Z,18.34
2019-06-27T04:10:17.213Z,18.35
2019-06-27T04:11:14.843Z,18.37
2019-06-27T04:12:14.808Z,18.44
2019-06-27T04:13:14.802Z,18.40
2019-06-27T04:14:14.786Z,18.56
2019-06-27T04:15:14.789Z,18.60
2019-06-27T04:16:14.811Z,18.53
2019-06-27T04:17:14.763Z,18.53
2019-06-27T04:18:14.748Z,18.65
2019-06-27T04:19:14.741Z,18.86
2019-06-27T04:20:14.728Z,18.75
2019-06-27T04:21:14.739Z,18.88
2019-06-27T04:22:17.634Z,18.95
2019-06-27T04:23:14.704Z,18.99
2019-06-27T04:24:14.780Z,18.92
2019-06-27T04:25:14.666Z,19.09
2019-06-27T04:26:14.663Z,19.00
2019-06-27T04:27:14.696Z,18.92
2019-06-27T04:28:14.666Z,19.02
2019-06-27T04:29:31.950Z,19.07
2019-06-27T04:30:14.619Z,18.98
2019-06-27T04:31:14.604Z,19.00
2019-06-27T04:32:14.612Z,19.00
2019-06-27T04:33:14.616Z,18.84
2019-06-27T04:34:19.385Z,18.89
2019-06-27T04:35:14.601Z,18.80
2019-06-27T04:36:14.582Z,18.88
2019-06-27T04:37:14.544Z,18.77
2019-06-27T04:38:14.552Z,18.78
2019-06-27T04:39:14.535Z,18.77
2019-06-27T04:40:14.519Z,18.68
2019-06-27T04:41:14.497Z,18.63
2019-06-27T04:42:14.492Z,18.56
2019-06-27T04:43:14.537Z,18.49
2019-06-27T04:44:14.465Z,18.37
2019-06-27T04:45:14.487Z,18.44
2019-06-27T04:46:14.452Z,18.40
2019-06-27T04:47:14.441Z,18.55
2019-06-27T04:48:14.418Z,18.73
2019-06-27T04:49:14.445Z,18.73
2019-06-27T04:50:14.400Z,18.74
2019-06-27T04:51:14.398Z,18.81
2019-06-27T04:52:14.373Z,18.84
2019-06-27T04:53:14.364Z,19.00
2019-06-27T04:54:14.376Z,19.09
2019-06-27T04:55:14.351Z,19.11
2019-06-27T04:56:14.329Z,18.83
2019-06-27T04:57:14.402Z,18.73
2019-06-27T04:58:14.319Z,18.73
2019-06-27T04:59:14.339Z,18.89
2019-06-27T05:00:14.290Z,19.02
2019-06-27T05:01:14.289Z,19.15
2019-06-27T05:02:14.267Z,19.27
2019-06-27T05:03:14.264Z,19.33
2019-06-27T05:04:14.275Z,19.29
2019-06-27T05:05:14.244Z,19.21
2019-06-27T05:06:14.223Z,19.34
2019-06-27T05:07:14.229Z,19.40
2019-06-27T05:08:14.991Z,19.24
2019-06-27T05:09:14.245Z,19.36
2019-06-27T05:10:14.191Z,19.34
2019-06-27T05:11:14.168Z,19.31
2019-06-27T05:12:14.163Z,19.39
2019-06-27T05:13:14.163Z,19.07
2019-06-27T05:14:14.166Z,19.00
2019-06-27T05:15:14.156Z,19.04
2019-06-27T05:16:14.113Z,19.00
2019-06-27T05:17:14.104Z,19.21
2019-06-27T05:18:14.099Z,19.31
2019-06-27T05:19:14.090Z,19.31
2019-06-27T05:20:14.100Z,19.39
2019-06-27T05:21:14.062Z,19.37
2019-06-27T05:22:14.053Z,19.31
2019-06-27T05:23:14.045Z,19.33
2019-06-27T05:24:14.038Z,19.31
2019-06-27T05:25:14.050Z,19.26
2019-06-27T05:26:14.037Z,19.31
2019-06-27T05:27:13.994Z,19.39
2019-06-27T05:28:13.995Z,19.54
2019-06-27T05:29:13.987Z,19.55
2019-06-27T05:30:14.022Z,19.47
2019-06-27T05:31:13.961Z,19.48
2019-06-27T05:32:13.960Z,19.31
2019-06-27T05:33:13.930Z,19.27
2019-06-27T05:34:13.921Z,19.24
2019-06-27T05:35:13.917Z,19.31
2019-06-27T05:36:13.926Z,19.34
2019-06-27T05:37:13.916Z,19.45
2019-06-27T05:38:13.890Z,19.41
2019-06-27T05:39:13.866Z,19.40
2019-06-27T05:40:13.852Z,19.31
2019-06-27T05:41:13.869Z,19.19
2019-06-27T05:42:13.841Z,19.18
2019-06-27T05:43:13.835Z,19.07
2019-06-27T05:44:13.956Z,19.12
2019-06-27T05:45:13.815Z,19.09
2019-06-27T05:46:13.853Z,19.19
2019-06-27T05:47:13.813Z,19.29
2019-06-27T05:48:13.768Z,19.44
2019-06-27T05:49:13.783Z,19.41
2019-06-27T05:50:13.749Z,19.51
2019-06-27T05:51:13.741Z,19.41
2019-06-27T05:52:13.745Z,19.49
2019-06-27T05:53:13.732Z,19.48
2019-06-27T05:54:13.704Z,19.59
2019-06-27T05:55:13.703Z,19.47
2019-06-27T05:56:13.683Z,19.45
2019-06-27T05:57:13.689Z,19.69
2019-06-27T05:58:13.661Z,19.54
2019-06-27T05:59:13.665Z,19.49
2019-06-27T06:00:27.658Z,19.63
2019-06-27T06:01:13.643Z,19.66
2019-06-27T06:02:13.672Z,19.74
2019-06-27T06:03:13.607Z,19.85
2019-06-27T06:04:13.603Z,19.84
2019-06-27T06:05:13.592Z,19.79
2019-06-27T06:06:13.582Z,19.74
2019-06-27T06:07:13.588Z,19.76
2019-06-27T06:08:13.595Z,19.63
2019-06-27T06:09:13.546Z,19.63
2019-06-27T06:10:13.551Z,19.45
2019-06-27T06:11:13.518Z,19.45
2019-06-27T06:12:13.521Z,19.49
2019-06-27T06:13:13.526Z,19.47
2019-06-27T06:14:13.488Z,19.58
2019-06-27T06:15:13.475Z,19.76
2019-06-27T06:16:13.476Z,19.91
2019-06-27T06:17:13.469Z,20.00
2019-06-27T06:18:13.507Z,19.99
2019-06-27T06:19:13.434Z,20.03
2019-06-27T06:20:13.435Z,20.02
2019-06-27T06:21:13.414Z,19.94
2019-06-27T06:22:13.416Z,20.00
2019-06-27T06:23:13.389Z,20.00
2019-06-27T06:24:13.422Z,20.06
2019-06-27T06:25:13.373Z,20.07
2019-06-27T06:26:13.408Z,20.18
2019-06-27T06:27:13.349Z,20.31
2019-06-27T06:28:13.366Z,20.25
2019-06-27T06:29:13.369Z,20.34
2019-06-27T06:30:13.328Z,20.39
2019-06-27T06:31:13.313Z,20.43
2019-06-27T06:32:13.359Z,20.26
2019-06-27T06:33:13.287Z,20.00
2019-06-27T06:34:13.327Z,20.03
2019-06-27T06:35:13.265Z,19.99
2019-06-27T06:36:13.319Z,19.99
2019-06-27T06:37:13.248Z,20.04
2019-06-27T06:38:13.239Z,20.04
2019-06-27T06:39:13.221Z,20.22
2019-06-27T06:40:13.233Z,20.14
2019-06-27T06:41:13.203Z,20.25
2019-06-27T06:42:13.212Z,20.21
2019-06-27T06:43:13.178Z,20.29
2019-06-27T06:44:13.189Z,20.28
2019-06-27T06:45:13.198Z,20.36
2019-06-27T06:46:13.144Z,20.43
2019-06-27T06:47:13.142Z,20.29
2019-06-27T06:48:13.135Z,20.29
2019-06-27T06:49:13.217Z,20.28
2019-06-27T06:50:13.166Z,20.28
2019-06-27T06:51:13.099Z,20.22
2019-06-27T06:52:13.083Z,20.24
2019-06-27T06:53:13.091Z,20.19
2019-06-27T06:54:13.086Z,20.06
2019-06-27T06:55:13.100Z,20.09
2019-06-27T06:56:13.061Z,20.16
2019-06-27T06:57:13.039Z,20.29
2019-06-27T06:58:13.056Z,20.28
2019-06-27T06:59:13.015Z,20.32
2019-06-27T07:00:12.995Z,20.24
2019-06-27T07:01:13.027Z,20.39
2019-06-27T07:02:12.978Z,20.39
2019-06-27T07:03:12.978Z,20.50
2019-06-27T07:04:12.956Z,20.43
2019-06-27T07:05:12.948Z,20.48
2019-06-27T07:06:12.974Z,20.52
2019-06-27T07:07:13.357Z,20.66
2019-06-27T07:08:12.909Z,20.72
2019-06-27T07:09:12.914Z,20.81
2019-06-27T07:10:12.904Z,20.81
2019-06-27T07:11:12.890Z,20.81
2019-06-27T07:12:12.901Z,20.67
2019-06-27T07:13:12.851Z,20.66
2019-06-27T07:14:12.856Z,20.65
2019-06-27T07:15:12.837Z,20.70
2019-06-27T07:16:12.899Z,20.70
2019-06-27T07:17:12.846Z,20.72
2019-06-27T07:18:12.803Z,20.77
2019-06-27T07:19:12.800Z,20.67
2019-06-27T07:20:12.790Z,20.63
2019-06-27T07:21:12.769Z,20.70
2019-06-27T07:22:12.832Z,20.70
2019-06-27T07:23:12.774Z,20.67
2019-06-27T07:24:12.763Z,20.67
2019-06-27T07:25:12.735Z,20.58
2019-06-27T07:26:12.744Z,20.60
2019-06-27T07:27:12.709Z,20.58
2019-06-27T07:28:12.722Z,20.65
2019-06-27T07:29:12.681Z,20.85
2019-06-27T07:30:12.669Z,20.85
2019-06-27T07:31:17.770Z,21.06
2019-06-27T07:32:12.672Z,21.18
2019-06-27T07:33:12.677Z,21.22
2019-06-27T07:34:12.643Z,21.24
2019-06-27T07:35:12.643Z,21.27
2019-06-27T07:36:12.616Z,21.20
2019-06-27T07:37:12.601Z,21.20
2019-06-27T07:38:12.635Z,21.20
2019-06-27T07:39:12.578Z,21.22
2019-06-27T07:40:12.579Z,21.17
2019-06-27T07:41:12.580Z,21.22
2019-06-27T07:42:12.558Z,21.21
2019-06-27T07:43:12.558Z,21.17
2019-06-27T07:44:13.171Z,21.17
2019-06-27T07:45:12.515Z,21.21
2019-06-27T07:46:24.674Z,21.18
2019-06-27T07:47:12.493Z,21.14
2019-06-27T07:48:12.491Z,20.99
2019-06-27T07:49:12.496Z,21.07
2019-06-27T07:50:12.453Z,21.05
2019-06-27T07:51:12.453Z,21.11
2019-06-27T07:52:12.450Z,21.20
2019-06-27T07:53:12.422Z,21.29
2019-06-27T07:54:12.477Z,21.32
2019-06-27T07:55:12.410Z,21.32
2019-06-27T07:56:12.389Z,21.29
2019-06-27T07:57:12.395Z,21.37
2019-06-27T07:58:12.391Z,21.40
2019-06-27T07:59:12.359Z,21.50
2019-06-27T08:00:12.366Z,21.48
2019-06-27T08:01:12.354Z,21.54
2019-06-27T08:02:15.996Z,21.57
2019-06-27T08:03:12.330Z,21.62
2019-06-27T08:04:12.301Z,21.75
2019-06-27T08:05:12.354Z,21.77
2019-06-27T08:06:12.290Z,21.76
2019-06-27T08:07:12.311Z,21.73
2019-06-27T08:08:12.261Z,21.88
2019-06-27T08:09:12.255Z,21.98
2019-06-27T08:10:12.287Z,22.13
2019-06-27T08:11:12.228Z,22.23
2019-06-27T08:12:12.222Z,22.07
2019-06-27T08:13:12.202Z,22.15
2019-06-27T08:14:12.202Z,22.15
2019-06-27T08:15:12.208Z,22.15
2019-06-27T08:16:12.205Z,22.17
2019-06-27T08:17:12.160Z,22.08
2019-06-27T08:18:12.166Z,22.17
2019-06-27T08:19:12.141Z,22.22
2019-06-27T08:20:12.140Z,22.28
2019-06-27T08:21:12.145Z,22.33
2019-06-27T08:22:12.106Z,22.39
2019-06-27T08:23:12.113Z,22.39
2019-06-27T08:24:12.104Z,22.32
2019-06-27T08:25:12.072Z,22.50
2019-06-27T08:26:12.123Z,22.41
2019-06-27T08:27:12.051Z,22.38
2019-06-27T08:28:12.045Z,22.41
2019-06-27T08:29:12.066Z,22.47
2019-06-27T08:30:12.032Z,22.47
2019-06-27T08:31:12.006Z,22.41
2019-06-27T08:32:12.017Z,22.44
2019-06-27T08:33:11.987Z,22.51
2019-06-27T08:34:11.978Z,22.59
2019-06-27T08:35:11.977Z,22.62
2019-06-27T08:36:11.956Z,22.50
2019-06-27T08:37:11.975Z,22.43
2019-06-27T08:38:11.957Z,22.53
2019-06-27T08:39:11.969Z,22.62
2019-06-27T08:40:11.915Z,22.66
2019-06-27T08:41:14.081Z,22.70
2019-06-27T08:42:11.930Z,22.68
2019-06-27T08:43:11.905Z,22.75
2019-06-27T08:44:11.896Z,22.81
2019-06-27T08:45:11.856Z,22.75
2019-06-27T08:46:12.002Z,22.85
2019-06-27T08:47:11.859Z,22.88
2019-06-27T08:48:11.847Z,23.06
2019-06-27T08:49:11.818Z,22.99
2019-06-27T08:50:11.814Z,22.99
2019-06-27T08:51:11.797Z,22.96
2019-06-27T08:52:11.795Z,22.98
2019-06-27T08:53:11.790Z,23.12
2019-06-27T08:54:11.795Z,23.25
2019-06-27T08:55:11.757Z,23.23
2019-06-27T08:56:11.732Z,23.12
2019-06-27T08:57:11.769Z,23.15
2019-06-27T08:58:11.779Z,23.31
2019-06-27T08:59:11.702Z,23.28
2019-06-27T09:00:11.698Z,23.32
2019-06-27T09:01:11.695Z,23.43
2019-06-27T09:02:11.674Z,23.41
2019-06-27T09:03:11.670Z,23.54
2019-06-27T09:04:11.717Z,23.56
2019-06-27T09:05:11.643Z,23.58
2019-06-27T09:06:11.650Z,23.32
2019-06-27T09:07:11.643Z,23.34
2019-06-27T09:08:11.608Z,23.46
2019-06-27T09:09:11.629Z,23.62
2019-06-27T09:10:11.591Z,23.62
2019-06-27T09:11:11.575Z,23.73
2019-06-27T09:12:11.761Z,23.66
2019-06-27T09:13:11.551Z,23.68
2019-06-27T09:14:11.591Z,23.77
2019-06-27T09:15:11.545Z,23.77
2019-06-27T09:16:11.529Z,23.78
2019-06-27T09:17:11.521Z,23.95
2019-06-27T09:18:11.512Z,24.01
2019-06-27T09:19:11.569Z,24.05
2019-06-27T09:20:11.527Z,24.03
2019-06-27T09:21:11.484Z,24.03
2019-06-27T09:22:11.451Z,24.08
2019-06-27T09:23:11.505Z,24.05
2019-06-27T09:24:11.448Z,24.10
2019-06-27T09:25:11.463Z,24.05
2019-06-27T09:26:11.413Z,24.11
2019-06-27T09:27:11.409Z,24.14
2019-06-27T09:28:11.390Z,24.24
2019-06-27T09:29:11.394Z,24.28
2019-06-27T09:30:11.492Z,24.38
2019-06-27T09:31:11.405Z,24.45
2019-06-27T09:32:24.875Z,24.39
2019-06-27T09:33:12.334Z,24.30
2019-06-27T09:34:11.384Z,24.26
2019-06-27T09:35:11.327Z,24.03
2019-06-27T09:36:11.361Z,24.03
2019-06-27T09:37:11.296Z,24.05
2019-06-27T09:38:11.292Z,24.17
2019-06-27T09:39:11.304Z,24.17
2019-06-27T09:40:11.270Z,24.21
2019-06-27T09:41:11.274Z,24.29
2019-06-27T09:42:11.237Z,24.21
2019-06-27T09:43:11.224Z,24.16
2019-06-27T09:44:11.214Z,24.30
2019-06-27T09:45:11.251Z,24.32
2019-06-27T09:46:11.249Z,24.40
2019-06-27T09:47:11.190Z,24.51
2019-06-27T09:48:11.173Z,24.55
2019-06-27T09:49:11.162Z,24.43
2019-06-27T09:50:11.150Z,24.40
2019-06-27T09:51:11.152Z,24.45
2019-06-27T09:52:11.160Z,24.50
2019-06-27T09:53:11.140Z,24.45
2019-06-27T09:54:11.108Z,24.50
2019-06-27T09:55:11.108Z,24.65
2019-06-27T09:56:11.086Z,24.61
2019-06-27T09:57:11.099Z,24.57
2019-06-27T09:58:11.074Z,24.58
2019-06-27T09:59:11.107Z,24.55
2019-06-27T10:00:11.055Z,24.68
2019-06-27T10:01:11.041Z,24.65
2019-06-27T10:02:11.097Z,24.57
2019-06-27T10:03:11.015Z,24.68
2019-06-27T10:04:11.009Z,24.63
2019-06-27T10:05:11.022Z,24.81
2019-06-27T10:06:10.983Z,24.68
2019-06-27T10:07:10.983Z,24.68
2019-06-27T10:08:10.995Z,24.73
2019-06-27T10:09:10.950Z,24.80
2019-06-27T10:10:11.001Z,24.81
2019-06-27T10:11:10.942Z,24.68
2019-06-27T10:12:10.956Z,24.51
2019-06-27T10:13:10.904Z,24.35
2019-06-27T10:14:10.905Z,24.40
2019-06-27T10:15:10.909Z,24.42
2019-06-27T10:16:10.899Z,24.39
2019-06-27T10:17:10.904Z,24.47
2019-06-27T10:18:10.854Z,24.54
2019-06-27T10:19:10.839Z,24.68
2019-06-27T10:20:10.842Z,24.80
2019-06-27T10:21:10.911Z,24.76
2019-06-27T10:22:10.831Z,24.88
2019-06-27T10:23:10.793Z,24.92
2019-06-27T10:24:10.787Z,24.98
2019-06-27T10:25:10.773Z,24.96
2019-06-27T10:26:10.817Z,24.92
2019-06-27T10:27:10.771Z,24.95
2019-06-27T10:28:10.759Z,24.86
2019-06-27T10:29:10.731Z,24.65
2019-06-27T10:30:10.729Z,24.70
2019-06-27T10:31:10.735Z,24.85
2019-06-27T10:32:10.736Z,24.91
2019-06-27T10:33:10.699Z,24.91
2019-06-27T10:34:10.700Z,24.98
2019-06-27T10:35:10.671Z,25.01
2019-06-27T10:36:10.667Z,25.06
2019-06-27T10:37:11.591Z,25.06
2019-06-27T10:38:10.634Z,25.17
2019-06-27T10:39:10.638Z,25.16
2019-06-27T10:40:10.626Z,25.22
2019-06-27T10:41:10.606Z,25.31
2019-06-27T10:42:10.624Z,25.32
2019-06-27T10:43:10.594Z,25.43
2019-06-27T10:44:10.577Z,25.43
2019-06-27T10:45:10.575Z,25.46
2019-06-27T10:46:10.598Z,25.54
2019-06-27T10:47:10.555Z,25.55
2019-06-27T10:48:10.525Z,25.62
2019-06-27T10:49:10.529Z,25.48
2019-06-27T10:50:10.506Z,25.36
2019-06-27T10:51:10.548Z,25.29
2019-06-27T10:52:10.483Z,25.28
2019-06-27T10:53:10.480Z,25.28
2019-06-27T10:54:10.467Z,25.35
2019-06-27T10:55:10.471Z,25.36
2019-06-27T10:56:10.445Z,25.36
2019-06-27T10:57:10.451Z,25.46
2019-06-27T10:58:10.424Z,25.43
2019-06-27T10:59:10.414Z,25.55
2019-06-27T11:00:10.431Z,25.53
2019-06-27T11:01:10.400Z,25.65
2019-06-27T11:02:10.421Z,25.68
2019-06-27T11:03:15.455Z,25.69
2019-06-27T11:04:11.355Z,25.73
2019-06-27T11:05:10.380Z,25.72
2019-06-27T11:06:10.338Z,25.65
2019-06-27T11:07:10.378Z,25.60
2019-06-27T11:08:10.322Z,25.43
2019-06-27T11:09:10.319Z,25.33
2019-06-27T11:10:10.302Z,25.35
2019-06-27T11:11:10.278Z,25.43
2019-06-27T11:12:10.273Z,25.40
2019-06-27T11:13:10.290Z,25.21
2019-06-27T11:14:10.267Z,25.36
2019-06-27T11:15:10.251Z,25.25
2019-06-27T11:16:10.242Z,25.29
2019-06-27T11:17:10.251Z,25.26
2019-06-27T11:18:10.214Z,25.31
2019-06-27T11:19:10.203Z,25.31
2019-06-27T11:20:10.204Z,25.22
2019-06-27T11:21:13.795Z,25.31
2019-06-27T11:22:10.554Z,25.35
2019-06-27T11:23:10.160Z,25.41
2019-06-27T11:24:10.159Z,25.55
2019-06-27T11:25:10.134Z,25.63
2019-06-27T11:26:10.200Z,25.73
2019-06-27T11:27:10.174Z,25.73
2019-06-27T11:28:10.421Z,25.72
2019-06-27T11:29:10.112Z,25.78
2019-06-27T11:30:10.090Z,25.78
2019-06-27T11:31:10.073Z,25.80
2019-06-27T11:32:10.096Z,25.75
2019-06-27T11:33:10.090Z,25.77
2019-06-27T11:34:10.089Z,25.81
2019-06-27T11:35:10.025Z,25.78
2019-06-27T11:36:10.014Z,25.85
2019-06-27T11:37:10.011Z,25.83
2019-06-27T11:38:10.017Z,25.72
2019-06-27T11:39:10.019Z,25.78
2019-06-27T11:40:12.218Z,25.77
2019-06-27T11:41:09.959Z,25.77
2019-06-27T11:42:09.945Z,25.75
2019-06-27T11:43:09.994Z,25.77
2019-06-27T11:44:09.962Z,25.69
2019-06-27T11:45:09.922Z,25.78
2019-06-27T11:46:09.908Z,25.78
2019-06-27T11:47:09.907Z,25.84
2019-06-27T11:48:09.888Z,25.88
2019-06-27T11:49:09.890Z,25.99
2019-06-27T11:50:10.050Z,26.09
2019-06-27T11:51:09.857Z,26.00
2019-06-27T11:52:09.843Z,25.99
2019-06-27T11:53:09.846Z,25.93
2019-06-27T11:54:09.850Z,25.85
2019-06-27T11:55:09.815Z,25.85
2019-06-27T11:56:09.802Z,25.91
2019-06-27T11:57:09.797Z,25.84
2019-06-27T11:58:09.777Z,25.72
2019-06-27T11:59:09.809Z,25.63
2019-06-27T12:00:09.757Z,25.66
2019-06-27T12:01:09.751Z,25.68
2019-06-27T12:02:09.746Z,25.78
2019-06-27T12:03:09.776Z,25.73
2019-06-27T12:04:09.712Z,25.70
2019-06-27T12:05:09.700Z,25.80
2019-06-27T12:06:09.705Z,25.72
2019-06-27T12:07:09.719Z,25.81
2019-06-27T12:08:11.045Z,25.83
2019-06-27T12:09:09.661Z,25.85
2019-06-27T12:10:09.647Z,25.87
2019-06-27T12:11:09.638Z,25.78
2019-06-27T12:12:09.634Z,25.87
2019-06-27T12:13:09.650Z,25.93
2019-06-27T12:14:09.607Z,25.93
2019-06-27T12:15:09.603Z,25.90
2019-06-27T12:16:09.586Z,25.93
2019-06-27T12:17:09.580Z,25.90
2019-06-27T12:18:09.584Z,25.99
2019-06-27T12:19:09.573Z,26.15
2019-06-27T12:20:09.547Z,26.13
2019-06-27T12:21:09.532Z,26.09
2019-06-27T12:22:09.531Z,26.10
2019-06-27T12:23:09.564Z,26.22
2019-06-27T12:24:09.517Z,26.29
2019-06-27T12:25:09.487Z,26.23
2019-06-27T12:26:09.492Z,26.26
2019-06-27T12:27:09.467Z,26.28
2019-06-27T12:28:09.460Z,26.29
2019-06-27T12:29:09.531Z,26.31
2019-06-27T12:30:09.516Z,26.38
2019-06-27T12:31:19.918Z,26.26
2019-06-27T12:32:09.429Z,26.26
2019-06-27T12:33:09.404Z,26.23
2019-06-27T12:34:09.409Z,26.33
2019-06-27T12:35:09.385Z,26.26
2019-06-27T12:36:09.377Z,26.31
2019-06-27T12:37:09.391Z,26.34
2019-06-27T12:38:09.367Z,26.44
2019-06-27T12:39:09.336Z,26.33
2019-06-27T12:40:09.338Z,26.41
2019-06-27T12:41:09.329Z,26.28
2019-06-27T12:42:09.312Z,26.18
2019-06-27T12:43:09.330Z,26.10
2019-06-27T12:44:09.283Z,26.07
2019-06-27T12:45:09.271Z,26.13
2019-06-27T12:46:09.262Z,26.16
2019-06-27T12:47:09.257Z,26.26
2019-06-27T12:48:09.293Z,26.22
2019-06-27T12:49:09.240Z,26.29
2019-06-27T12:50:09.239Z,26.41
2019-06-27T12:51:09.249Z,26.29
2019-06-27T12:52:09.201Z,26.07